createdAt,value
2022-10-17T00:00:31.391Z,100318.54
2022-10-17T00:01:31.956Z,100321.02
2022-10-17T00:02:32.225Z,100314.44
2022-10-17T00:03:33.868Z,100314.2
2022-10-17T00:05:33.731Z,100313.88
2022-10-17T00:06:34.005Z,100315.48
2022-10-17T00:07:34.611Z,100309.91
2022-10-17T00:08:34.948Z,100313.22
2022-10-17T00:09:35.114Z,100313.12
2022-10-17T00:10:36.369Z,100313.3
2022-10-17T00:11:36.595Z,100315.58
2022-10-17T00:12:36.457Z,100316.58
2022-10-17T00:13:37.023Z,100320.3
2022-10-17T00:14:37.722Z,100318.94
2022-10-17T00:15:38.264Z,100322.77
2022-10-17T00:16:38.262Z,100322.46
2022-10-17T00:17:38.654Z,100323.59
2022-10-17T00:18:39.255Z,100323.53
2022-10-17T00:19:39.620Z,100319.62
2022-10-17T00:20:40.040Z,100317.88
2022-10-17T00:21:40.506Z,100316.61
2022-10-17T00:22:40.865Z,100317.12
2022-10-17T00:23:41.582Z,100311.39
2022-10-17T00:24:41.767Z,100312.59
2022-10-17T00:25:42.305Z,100315.09
2022-10-17T00:26:42.622Z,100308.85
2022-10-17T00:27:43.037Z,100309.59
2022-10-17T00:28:46.719Z,100313.26
2022-10-17T00:30:46.097Z,100307.03
2022-10-17T00:31:46.667Z,100304.25
2022-10-17T00:32:47.067Z,100311.42
2022-10-17T00:33:47.895Z,100310.88
2022-10-17T00:34:47.793Z,100309.87
2022-10-17T00:35:48.172Z,100312.27
2022-10-17T00:36:48.955Z,100309.91
2022-10-17T00:37:49.249Z,100313.27
2022-10-17T00:38:52.640Z,100313.05
2022-10-17T00:39:50.395Z,100317.02
2022-10-17T00:40:50.651Z,100312.5
2022-10-17T00:41:50.917Z,100316.81
2022-10-17T00:42:51.343Z,100310.98
2022-10-17T00:45:56.923Z,100321.91
2022-10-17T00:47:06.079Z,100315.91
2022-10-17T00:48:09.450Z,100319.15
2022-10-17T00:49:08.674Z,100321.27
2022-10-17T00:50:07.974Z,100324.75
2022-10-17T00:51:06.845Z,100324.59
2022-10-17T00:52:11.674Z,100322.77
2022-10-17T00:53:10.649Z,100325.26
2022-10-17T00:54:11.377Z,100327.41
2022-10-17T00:55:16.506Z,100325.77
2022-10-17T00:56:15.292Z,100325.29
2022-10-17T00:57:16.716Z,100326.7
2022-10-17T00:58:15.596Z,100328.53
2022-10-17T00:59:17.870Z,100335.06
2022-10-17T01:00:16.852Z,100332.62
2022-10-17T01:01:16.327Z,100333.61
2022-10-17T01:02:19.001Z,100334.38
2022-10-17T01:03:17.163Z,100333.33
2022-10-17T01:04:19.184Z,100334.23
2022-10-17T01:05:19.309Z,100331.44
2022-10-17T01:06:19.247Z,100328.23
2022-10-17T01:07:19.357Z,100331.23
2022-10-17T01:08:19.649Z,100328.2
2022-10-17T01:09:20.381Z,100322
2022-10-17T01:34:21.376Z,100319.88
2022-10-17T01:40:36.386Z,100324.05
2022-10-17T01:45:53.086Z,100324.81
2022-10-17T01:46:51.078Z,100321.45
2022-10-17T01:47:52.595Z,100323.27
2022-10-17T01:48:50.132Z,100319.36
2022-10-17T01:49:53.826Z,100323.59
2022-10-17T01:52:06.644Z,100323.43
2022-10-17T01:54:03.177Z,100330.47
2022-10-17T01:56:01.142Z,100332.02
2022-10-17T01:57:07.509Z,100334.56
2022-10-17T01:58:06.895Z,100337.68
2022-10-17T01:59:13.349Z,100338.3
2022-10-17T02:00:14.134Z,100332.28
2022-10-17T02:01:10.123Z,100337.48
2022-10-17T02:02:09.681Z,100340.18
2022-10-17T02:03:12.250Z,100337.58
2022-10-17T02:04:11.447Z,100338.62
2022-10-17T02:05:10.629Z,100339.79
2022-10-17T02:06:10.492Z,100335.6
2022-10-17T02:07:13.000Z,100337.34
2022-10-17T02:08:12.598Z,100336.41
2022-10-17T02:09:23.050Z,100333.27
2022-10-17T02:11:24.763Z,100334.11
2022-10-17T02:31:15.387Z,100341.39
2022-10-17T02:32:19.410Z,100343.99
2022-10-17T02:33:29.554Z,100345.14
2022-10-17T02:34:33.765Z,100344.52
2022-10-17T02:35:31.413Z,100342.99
2022-10-17T02:36:39.107Z,100339.73
2022-10-17T02:37:32.986Z,100340.12
2022-10-17T02:38:34.727Z,100332.6
2022-10-17T02:39:35.152Z,100333.72
2022-10-17T02:40:33.796Z,100335.06
2022-10-17T02:41:34.387Z,100330.52
2022-10-17T02:42:35.153Z,100337.73
2022-10-17T02:43:36.140Z,100338.72
2022-10-17T02:44:37.715Z,100344.02
2022-10-17T02:45:37.826Z,100347.41
2022-10-17T02:46:38.454Z,100349.18
2022-10-17T02:49:44.008Z,100351.23
2022-10-17T02:52:55.461Z,100357.76
2022-10-17T02:59:09.938Z,100370.77
2022-10-17T03:00:11.197Z,100368.01
2022-10-17T03:01:09.079Z,100376.59
2022-10-17T03:02:09.170Z,100374.62
2022-10-17T03:04:14.813Z,100378.84
2022-10-17T03:05:22.392Z,100368.66
2022-10-17T03:06:15.004Z,100369.27
2022-10-17T03:07:15.659Z,100367.61
2022-10-17T03:08:15.968Z,100370.97
2022-10-17T03:09:16.591Z,100367.12
2022-10-17T03:10:17.498Z,100367.95
2022-10-17T03:11:17.882Z,100369.8
2022-10-17T03:12:17.429Z,100370.29
2022-10-17T03:13:18.047Z,100371.97
2022-10-17T03:14:18.687Z,100371.8
2022-10-17T03:15:18.676Z,100377.55
2022-10-17T03:16:18.985Z,100378.81
2022-10-17T03:17:19.283Z,100380.33
2022-10-17T03:18:19.724Z,100381.32
2022-10-17T03:19:20.333Z,100379.91
2022-10-17T03:20:20.558Z,100382.02
2022-10-17T03:21:21.166Z,100381.83
2022-10-17T03:22:21.359Z,100382.34
2022-10-17T03:23:21.817Z,100385.27
2022-10-17T03:24:22.416Z,100386.08
2022-10-17T03:25:22.744Z,100382.66
2022-10-17T03:26:23.065Z,100386.78
2022-10-17T03:27:23.397Z,100376.5
2022-10-17T03:28:23.964Z,100381.78
2022-10-17T03:29:24.716Z,100389.67
2022-10-17T03:30:24.673Z,100387.64
2022-10-17T03:31:25.335Z,100396.83
2022-10-17T03:32:25.752Z,100399.2
2022-10-17T03:33:26.477Z,100401.34
2022-10-17T03:34:26.484Z,100409.94
2022-10-17T03:35:27.829Z,100415.72
2022-10-17T03:36:27.209Z,100411.8
2022-10-17T03:37:27.993Z,100407.75
2022-10-17T03:38:28.048Z,100411.22
2022-10-17T03:39:28.577Z,100412.64
2022-10-17T03:40:28.774Z,100411.78
2022-10-17T03:41:29.306Z,100412.95
2022-10-17T03:42:29.706Z,100404.88
2022-10-17T03:43:30.226Z,100412
2022-10-17T03:44:30.536Z,100412.28
2022-10-17T03:45:30.867Z,100415.31
2022-10-17T03:46:31.272Z,100413.96
2022-10-17T03:47:32.245Z,100415.99
2022-10-17T03:48:33.051Z,100414.23
2022-10-17T03:49:32.623Z,100409.77
2022-10-17T03:50:32.962Z,100417.92
2022-10-17T03:51:34.066Z,100414.2
2022-10-17T03:52:33.793Z,100421.06
2022-10-17T03:53:34.718Z,100418.08
2022-10-17T03:54:34.812Z,100417.52
2022-10-17T03:55:35.014Z,100415.48
2022-10-17T03:56:35.440Z,100421.06
2022-10-17T03:57:36.465Z,100422.97
2022-10-17T03:58:36.367Z,100430.44
2022-10-17T03:59:36.999Z,100428.16
2022-10-17T04:00:37.115Z,100431.27
2022-10-17T04:01:37.563Z,100426.14
2022-10-17T04:02:37.938Z,100425.04
2022-10-17T04:03:38.656Z,100425.25
2022-10-17T04:04:38.766Z,100420.66
2022-10-17T04:05:39.532Z,100417.12
2022-10-17T04:06:39.695Z,100417.24
2022-10-17T04:07:40.322Z,100415.92
2022-10-17T04:08:40.734Z,100415.33
2022-10-17T04:09:40.866Z,100418.17
2022-10-17T04:10:41.503Z,100418.49
2022-10-17T04:11:41.997Z,100416.67
2022-10-17T04:12:42.197Z,100421.83
2022-10-17T04:13:42.627Z,100419.67
2022-10-17T04:14:43.030Z,100424.05
2022-10-17T04:15:43.349Z,100425.62
2022-10-17T04:16:44.373Z,100418.94
2022-10-17T04:17:44.397Z,100429.65
2022-10-17T04:18:44.966Z,100430.84
2022-10-17T04:19:45.218Z,100423.55
2022-10-17T04:20:45.440Z,100428.68
2022-10-17T04:21:46.469Z,100430.34
2022-10-17T04:22:46.379Z,100426.28
2022-10-17T04:23:46.786Z,100436.12
2022-10-17T04:24:47.197Z,100436.81
2022-10-17T04:25:47.638Z,100434.15
2022-10-17T04:26:50.381Z,100442.54
2022-10-17T04:27:48.446Z,100436.44
2022-10-17T04:28:49.199Z,100447.09
2022-10-17T04:29:49.236Z,100438.67
2022-10-17T04:30:59.933Z,100443.2
2022-10-17T04:31:52.784Z,100442.31
2022-10-17T04:32:52.786Z,100443.41
2022-10-17T04:33:53.196Z,100450.83
2022-10-17T04:34:53.618Z,100443.61
2022-10-17T04:36:54.757Z,100444.43
2022-10-17T04:37:54.870Z,100435.27
2022-10-17T04:38:55.386Z,100438.8
2022-10-17T04:39:55.698Z,100438.38
2022-10-17T04:42:00.087Z,100435.69
2022-10-17T04:43:00.739Z,100431.72
2022-10-17T04:44:01.054Z,100432.55
2022-10-17T04:45:01.576Z,100428.44
2022-10-17T04:46:04.196Z,100418.64
2022-10-17T04:47:02.396Z,100415.3
2022-10-17T04:48:02.826Z,100427.45
2022-10-17T04:49:03.439Z,100423.72
2022-10-17T04:50:04.873Z,100420.66
2022-10-17T04:51:07.856Z,100422.25
2022-10-17T04:52:05.296Z,100417.11
2022-10-17T04:53:05.831Z,100409.59
2022-10-17T04:54:06.437Z,100411.77
2022-10-17T04:55:07.260Z,100405.91
2022-10-17T04:57:08.058Z,100407.73
2022-10-17T04:58:08.408Z,100412.55
2022-10-17T04:59:09.048Z,100417.16
2022-10-17T05:00:10.371Z,100423.88
2022-10-17T05:01:14.954Z,100419.55
2022-10-17T05:02:12.649Z,100420.5
2022-10-17T05:03:12.855Z,100433.69
2022-10-17T05:04:13.259Z,100431.62
2022-10-17T05:05:13.683Z,100431.63
2022-10-17T05:06:17.088Z,100435.61
2022-10-17T05:07:15.132Z,100439.17
2022-10-17T05:08:15.746Z,100436.79
2022-10-17T05:09:15.858Z,100431
2022-10-17T05:10:16.579Z,100426.58
2022-10-17T05:11:19.872Z,100438.92
2022-10-17T05:12:17.212Z,100443.48
2022-10-17T05:13:17.626Z,100447.31
2022-10-17T05:14:18.156Z,100452.34
2022-10-17T05:15:18.356Z,100454.89
2022-10-17T05:16:19.596Z,100446.38
2022-10-17T05:17:19.283Z,100439.46
2022-10-17T05:18:19.907Z,100443.81
2022-10-17T05:19:20.228Z,100437.12
2022-10-17T05:20:20.405Z,100452.25
2022-10-17T05:21:22.383Z,100447.4
2022-10-17T05:22:21.275Z,100458.62
2022-10-17T05:23:21.824Z,100460.83
2022-10-17T05:24:22.211Z,100457.64
2022-10-17T05:25:22.619Z,100453.02
2022-10-17T05:26:23.354Z,100451.88
2022-10-17T05:27:23.450Z,100451.98
2022-10-17T05:28:24.177Z,100451.96
2022-10-17T05:29:24.419Z,100447.52
2022-10-17T05:30:24.708Z,100448.83
2022-10-17T05:31:25.116Z,100450.8
2022-10-17T05:32:25.530Z,100457.12
2022-10-17T05:33:26.055Z,100457.94
2022-10-17T05:34:26.779Z,100458.47
2022-10-17T05:35:26.679Z,100451.97
2022-10-17T05:36:27.192Z,100456.8
2022-10-17T05:37:29.874Z,100451.16
2022-10-17T05:38:29.059Z,100453.75
2022-10-17T05:39:28.355Z,100459.73
2022-10-17T05:40:28.767Z,100464.31
2022-10-17T05:41:29.291Z,100459.91
2022-10-17T05:42:29.848Z,100463.87
2022-10-17T05:43:30.742Z,100463.27
2022-10-17T05:44:30.424Z,100473.03
2022-10-17T05:45:31.058Z,100464.43
2022-10-17T05:46:31.365Z,100469.7
2022-10-17T05:47:32.371Z,100474.06
2022-10-17T05:48:32.915Z,100485.05
2022-10-17T05:49:43.921Z,100487.22
2022-10-17T05:50:36.367Z,100487.2
2022-10-17T05:51:36.881Z,100487
2022-10-17T05:52:36.904Z,100486.12
2022-10-17T05:53:41.353Z,100476.12
2022-10-17T05:54:38.794Z,100484.7
2022-10-17T05:55:39.302Z,100491.14
2022-10-17T05:56:39.728Z,100492.43
2022-10-17T05:57:40.009Z,100495.23
2022-10-17T05:58:51.582Z,100495.27
2022-10-17T05:59:44.984Z,100492.95
2022-10-17T06:01:45.940Z,100495.59
2022-10-17T06:02:46.575Z,100501.78
2022-10-17T06:03:47.156Z,100511.11
2022-10-17T06:04:47.138Z,100506.73
2022-10-17T06:05:47.572Z,100509.02
2022-10-17T06:06:48.204Z,100509.92
2022-10-17T06:07:48.810Z,100509.5
2022-10-17T06:08:48.976Z,100511.94
2022-10-17T06:09:49.147Z,100518.02
2022-10-17T06:10:50.262Z,100517.72
2022-10-17T06:11:49.961Z,100521.17
2022-10-17T06:12:50.475Z,100529.97
2022-10-17T06:13:51.007Z,100518.35
2022-10-17T06:14:51.329Z,100525.17
2022-10-17T06:15:52.039Z,100516.3
2022-10-17T06:16:52.201Z,100516.02
2022-10-17T06:17:52.568Z,100516.31
2022-10-17T06:18:53.297Z,100522.63
2022-10-17T06:19:53.408Z,100531.8
2022-10-17T06:20:53.718Z,100533.48
2022-10-17T06:21:54.226Z,100528.86
2022-10-17T06:22:54.649Z,100524.88
2022-10-17T06:23:55.198Z,100538.6
2022-10-17T06:24:55.485Z,100538.09
2022-10-17T06:25:59.488Z,100550.08
2022-10-17T06:26:57.029Z,100536.19
2022-10-17T06:27:57.758Z,100543.52
2022-10-17T06:28:58.118Z,100551.14
2022-10-17T06:29:58.277Z,100550.72
2022-10-17T06:30:58.815Z,100553.43
2022-10-17T06:31:59.335Z,100545.36
2022-10-17T06:32:59.522Z,100554.73
2022-10-17T06:34:00.242Z,100554.7
2022-10-17T06:35:00.673Z,100559.43
2022-10-17T06:36:00.947Z,100560.41
2022-10-17T06:37:01.302Z,100568.89
2022-10-17T06:38:01.824Z,100572.41
2022-10-17T06:39:02.232Z,100573.41
2022-10-17T06:40:02.519Z,100575
2022-10-17T06:41:13.924Z,100576.78
2022-10-17T06:42:07.078Z,100579.5
2022-10-17T06:43:06.858Z,100573.21
2022-10-17T06:44:07.796Z,100575.98
2022-10-17T06:45:08.865Z,100583.12
2022-10-17T06:46:08.243Z,100583.52
2022-10-17T06:47:10.178Z,100587.02
2022-10-17T06:48:09.055Z,100589.72
2022-10-17T06:49:10.600Z,100591.49
2022-10-17T06:50:09.886Z,100594.96
2022-10-17T06:51:11.065Z,100600.95
2022-10-17T06:52:10.911Z,100598.56
2022-10-17T06:53:11.024Z,100597.45
2022-10-17T06:54:11.765Z,100592.05
2022-10-17T06:55:11.862Z,100594.47
2022-10-17T06:56:12.247Z,100588.65
2022-10-17T06:57:12.798Z,100594.56
2022-10-17T06:58:13.219Z,100589.69
2022-10-17T06:59:13.690Z,100595.64
2022-10-17T07:00:14.557Z,100591.21
2022-10-17T07:01:14.452Z,100600.31
2022-10-17T07:02:14.872Z,100600.41
2022-10-17T07:03:15.393Z,100604.23
2022-10-17T07:04:16.007Z,100596.03
2022-10-17T07:05:16.326Z,100605.95
2022-10-17T07:06:16.653Z,100607.54
2022-10-17T07:07:17.050Z,100607.78
2022-10-17T07:08:17.373Z,100609.41
2022-10-17T07:09:18.202Z,100608.51
2022-10-17T07:10:18.303Z,100611.97
2022-10-17T07:11:20.667Z,100613.34
2022-10-17T07:12:19.142Z,100613.2
2022-10-17T07:13:19.969Z,100616.05
2022-10-17T07:14:19.872Z,100615.42
2022-10-17T07:15:20.388Z,100611.49
2022-10-17T07:16:20.915Z,100614.31
2022-10-17T07:17:21.223Z,100619.44
2022-10-17T07:18:21.834Z,100617.7
2022-10-17T07:19:22.171Z,100620.38
2022-10-17T07:20:22.670Z,100623.75
2022-10-17T07:21:23.198Z,100627.28
2022-10-17T07:22:23.512Z,100624.38
2022-10-17T07:23:24.242Z,100620.8
2022-10-17T07:24:24.233Z,100626.47
2022-10-17T07:25:25.068Z,100627.5
2022-10-17T07:26:25.483Z,100628.82
2022-10-17T07:27:25.908Z,100635.06
2022-10-17T07:28:26.111Z,100631.09
2022-10-17T07:29:26.722Z,100640.03
2022-10-17T07:30:27.045Z,100643.37
2022-10-17T07:31:27.565Z,100634.19
2022-10-17T07:32:27.883Z,100639.05
2022-10-17T07:33:28.398Z,100643.16
2022-10-17T07:34:28.806Z,100642.12
2022-10-17T07:35:29.122Z,100638.95
2022-10-17T07:36:29.589Z,100645.36
2022-10-17T07:37:30.607Z,100651.2
2022-10-17T07:38:30.683Z,100656.21
2022-10-17T07:39:31.000Z,100658.83
2022-10-17T07:40:31.304Z,100654.29
2022-10-17T07:41:31.619Z,100657.84
2022-10-17T07:42:32.849Z,100669.73
2022-10-17T07:43:34.115Z,100668.91
2022-10-17T07:44:33.494Z,100670.73
2022-10-17T07:45:33.488Z,100669.95
2022-10-17T07:46:33.908Z,100666.14
2022-10-17T07:47:34.344Z,100668.53
2022-10-17T07:48:35.469Z,100670.58
2022-10-17T07:49:35.058Z,100669.31
2022-10-17T07:50:35.788Z,100668.7
2022-10-17T07:51:36.057Z,100668.62
2022-10-17T07:52:36.517Z,100667.84
2022-10-17T07:53:42.681Z,100667.53
2022-10-17T07:54:38.167Z,100668.8
2022-10-17T07:55:38.993Z,100674.16
2022-10-17T07:56:38.554Z,100670.42
2022-10-17T07:57:39.010Z,100671.11
2022-10-17T07:58:40.042Z,100671.55
2022-10-17T07:59:39.728Z,100669.45
2022-10-17T08:00:40.947Z,100672.28
2022-10-17T08:01:40.767Z,100680.94
2022-10-17T08:02:41.186Z,100677.45
2022-10-17T08:03:43.241Z,100674.95
2022-10-17T08:04:42.117Z,100675.8
2022-10-17T08:05:42.421Z,100678.44
2022-10-17T08:06:42.854Z,100680.47
2022-10-17T08:07:43.264Z,100684.08
2022-10-17T08:08:44.401Z,100688.52
2022-10-17T08:09:44.517Z,100690.56
2022-10-17T08:10:44.722Z,100694.09
2022-10-17T08:11:45.039Z,100693
2022-10-17T08:12:45.560Z,100697.84
2022-10-17T08:13:45.870Z,100700.41
2022-10-17T08:14:46.299Z,100700.44
2022-10-17T08:15:46.909Z,100697.53
2022-10-17T08:16:47.427Z,100701.64
2022-10-17T08:17:47.532Z,100695.61
2022-10-17T08:18:48.300Z,100701.59
2022-10-17T08:19:48.377Z,100704.76
2022-10-17T08:20:48.889Z,100702.88
2022-10-17T08:21:49.302Z,100706.05
2022-10-17T08:22:56.069Z,100710.59
2022-10-17T08:23:54.102Z,100708.84
2022-10-17T08:24:54.245Z,100706.51
2022-10-17T08:25:54.454Z,100702.62
2022-10-17T08:26:55.169Z,100705.61
2022-10-17T08:27:55.531Z,100704.91
2022-10-17T08:28:56.098Z,100716.62
2022-10-17T08:29:56.340Z,100714.19
2022-10-17T08:32:01.193Z,100721.91
2022-10-17T08:32:59.920Z,100720.91
2022-10-17T08:34:00.853Z,100722.46
2022-10-17T08:35:00.853Z,100719.01
2022-10-17T08:36:01.551Z,100719.64
2022-10-17T08:37:01.734Z,100726.77
2022-10-17T08:38:02.215Z,100729.38
2022-10-17T08:39:02.832Z,100728.5
2022-10-17T08:40:02.943Z,100726.58
2022-10-17T08:41:13.289Z,100722.45
2022-10-17T08:48:24.398Z,100747.89
2022-10-17T08:51:34.855Z,100745.57
2022-10-17T08:53:40.089Z,100750.25
2022-10-17T08:54:42.321Z,100737.53
2022-10-17T08:56:49.733Z,100740.66
2022-10-17T08:57:42.907Z,100751.62
2022-10-17T08:58:43.008Z,100748.27
2022-10-17T08:59:44.659Z,100756.2
2022-10-17T09:00:54.891Z,100753.86
2022-10-17T09:18:43.029Z,100749.73
2022-10-17T09:19:40.475Z,100743.97
2022-10-17T09:20:38.337Z,100756.48
2022-10-17T09:22:52.554Z,100752.33
2022-10-17T09:26:45.849Z,100746.42
2022-10-17T09:28:54.221Z,100741.71
2022-10-17T09:32:59.197Z,100748.8
2022-10-17T09:43:30.398Z,100760.77
2022-10-17T09:50:42.370Z,100781.08
2022-10-17T09:51:42.764Z,100768.83
2022-10-17T09:52:44.215Z,100768.18
2022-10-17T09:54:50.668Z,100771.98
2022-10-17T09:58:58.681Z,100773.5
2022-10-17T10:05:14.810Z,100769.3
2022-10-17T10:11:13.808Z,100781.77
2022-10-17T10:16:31.924Z,100771.48
2022-10-17T10:18:35.035Z,100771.55
2022-10-17T10:19:36.401Z,100782.13
2022-10-17T10:20:36.817Z,100773.91
2022-10-17T10:21:37.165Z,100775.76
2022-10-17T10:22:34.991Z,100773.17
2022-10-17T10:23:36.733Z,100780.82
2022-10-17T10:24:35.828Z,100772.67
2022-10-17T10:25:36.646Z,100769.11
2022-10-17T10:26:50.352Z,100768.72
2022-10-17T10:27:40.441Z,100772.17
2022-10-17T10:28:38.750Z,100772.09
2022-10-17T10:29:50.082Z,100774.92
2022-10-17T10:30:49.684Z,100781.48
2022-10-17T10:31:48.462Z,100779.42
2022-10-17T10:32:49.178Z,100784.09
2022-10-17T10:33:50.505Z,100785.64
2022-10-17T10:36:01.966Z,100793.85
2022-10-17T10:36:59.635Z,100791.52
2022-10-17T10:37:59.049Z,100782.05
2022-10-17T10:39:01.300Z,100786.66
2022-10-17T10:41:07.316Z,100791.78
2022-10-17T10:42:08.905Z,100790.92
2022-10-17T10:43:07.065Z,100804.33
2022-10-17T10:47:25.421Z,100792.77
2022-10-17T10:48:30.647Z,100801.92
2022-10-17T10:55:38.476Z,100804.7
2022-10-17T10:57:37.888Z,100802.84
2022-10-17T11:00:39.128Z,100805.51
2022-10-17T11:11:17.909Z,100827.11
2022-10-17T11:22:49.928Z,100834.85
2022-10-17T11:23:51.766Z,100835.02
2022-10-17T11:24:53.156Z,100831.55
2022-10-17T11:25:46.365Z,100834.62
2022-10-17T11:26:54.145Z,100827.78
2022-10-17T11:27:46.709Z,100823.22
2022-10-17T11:28:47.554Z,100827.54
2022-10-17T11:29:48.125Z,100832.03
2022-10-17T11:31:57.046Z,100836.14
2022-10-17T11:33:01.146Z,100833.23
2022-10-17T11:41:23.226Z,100842
2022-10-17T11:42:27.677Z,100845.64
2022-10-17T11:45:26.177Z,100846.88
2022-10-17T11:46:26.784Z,100852.12
2022-10-17T11:52:56.361Z,100855.01
2022-10-17T11:53:57.398Z,100859.86
2022-10-17T11:55:47.969Z,100860.72
2022-10-17T12:15:38.488Z,100869.53
2022-10-17T12:18:45.268Z,100874.47
2022-10-17T12:19:45.483Z,100877.53
2022-10-17T12:22:51.650Z,100889.6
2022-10-17T12:26:05.466Z,100893.52
2022-10-17T12:26:56.374Z,100890.59
2022-10-17T12:28:57.383Z,100889.55
2022-10-17T12:37:14.369Z,100880.81
2022-10-17T12:38:23.713Z,100873.56
2022-10-17T12:47:38.907Z,100888.91
2022-10-17T12:55:59.136Z,100893.57
2022-10-17T12:56:51.677Z,100893.77
2022-10-17T12:58:54.106Z,100894.52
2022-10-17T12:59:58.654Z,100897.17
2022-10-17T13:01:23.064Z,100895.61
2022-10-17T13:02:03.577Z,100895.05
2022-10-17T13:04:04.200Z,100887.47
2022-10-17T13:06:07.696Z,100897.44
2022-10-17T13:07:05.356Z,100908.86
2022-10-17T13:08:13.245Z,100906.03
2022-10-17T13:09:15.709Z,100898.48
2022-10-17T13:11:11.527Z,100899.67
2022-10-17T13:13:21.376Z,100906.09
2022-10-17T13:14:21.466Z,100902.89
2022-10-17T13:15:20.967Z,100903.8
2022-10-17T13:18:28.467Z,100906.39
2022-10-17T13:20:31.865Z,100907.34
2022-10-17T13:21:29.982Z,100911.09
2022-10-17T13:22:32.706Z,100914
2022-10-17T13:25:38.902Z,100921.78
2022-10-17T13:26:37.116Z,100916.98
2022-10-17T13:27:38.047Z,100930.02
2022-10-17T13:28:39.553Z,100924.42
2022-10-17T13:31:44.848Z,100925.07
2022-10-17T13:32:43.818Z,100928.75
2022-10-17T13:33:43.887Z,100924.34
2022-10-17T13:34:44.542Z,100928.53
2022-10-17T13:35:59.937Z,100929.67
2022-10-17T13:36:52.231Z,100929.17
2022-10-17T13:37:53.964Z,100926.58
2022-10-17T13:38:52.243Z,100925.4
2022-10-17T13:39:55.690Z,100926.53
2022-10-17T13:41:02.030Z,100927.98
2022-10-17T13:41:59.022Z,100931.45
2022-10-17T13:42:59.957Z,100926.1
2022-10-17T13:43:59.344Z,100923.52
2022-10-17T13:45:00.186Z,100924.17
2022-10-17T13:46:19.340Z,100930.12
2022-10-17T13:47:02.858Z,100926.06
2022-10-17T13:48:06.647Z,100924.08
2022-10-17T13:49:12.906Z,100930.53
2022-10-17T13:50:12.798Z,100923.77
2022-10-17T13:51:11.106Z,100928.42
2022-10-17T13:52:21.729Z,100926.64
2022-10-17T13:55:18.040Z,100932.5
2022-10-17T13:57:24.586Z,100935.97
2022-10-17T13:58:22.179Z,100930
2022-10-17T13:59:26.083Z,100937.5
2022-10-17T14:00:23.834Z,100936.03
2022-10-17T14:01:26.296Z,100937.52
2022-10-17T14:02:27.325Z,100944.05
2022-10-17T14:03:31.225Z,100937.75
2022-10-17T14:04:40.020Z,100941.52
2022-10-17T14:05:34.203Z,100945.12
2022-10-17T14:08:39.657Z,100947.48
2022-10-17T14:09:38.854Z,100945.09
2022-10-17T14:10:41.106Z,100953.66
2022-10-17T14:11:42.122Z,100947.82
2022-10-17T14:12:43.665Z,100949.8
2022-10-17T14:13:41.518Z,100952.31
2022-10-17T14:15:46.041Z,100953.42
2022-10-17T14:16:44.120Z,100954.04
2022-10-17T14:17:45.756Z,100955.23
2022-10-17T14:18:48.218Z,100960.01
2022-10-17T14:19:51.492Z,100959.01
2022-10-17T14:21:34.008Z,100959.11
2022-10-17T14:23:21.828Z,100956.86
2022-10-17T14:25:02.437Z,100955.52
2022-10-17T14:27:03.111Z,100955.86
2022-10-17T14:31:22.497Z,100951.51
2022-10-17T14:32:17.797Z,100948.8
2022-10-17T14:35:37.297Z,100955.27
2022-10-17T14:36:21.610Z,100958.47
2022-10-17T14:38:25.468Z,100951.3
2022-10-17T14:39:27.316Z,100949.12
2022-10-17T14:40:28.489Z,100947.12
2022-10-17T14:41:42.441Z,100949.04
2022-10-17T14:42:31.262Z,100946.11
2022-10-17T14:43:32.805Z,100944.75
2022-10-17T14:44:36.001Z,100950.76
2022-10-17T14:45:38.678Z,100951.02
2022-10-17T14:46:37.136Z,100954.52
2022-10-17T14:47:43.734Z,100956.42
2022-10-17T14:48:36.740Z,100960.25
2022-10-17T14:49:39.423Z,100966.48
2022-10-17T14:50:38.135Z,100966.48
2022-10-17T14:51:50.344Z,100968.05
2022-10-17T14:52:40.240Z,100968.44
2022-10-17T14:53:40.862Z,100968.34
2022-10-17T14:54:40.771Z,100966.59
2022-10-17T14:56:43.350Z,100969.67
2022-10-17T14:57:45.404Z,100970.16
2022-10-17T14:58:43.259Z,100969.16
2022-10-17T14:59:53.721Z,100973.02
2022-10-17T15:00:47.567Z,100972.86
2022-10-17T15:01:50.952Z,100972.91
2022-10-17T15:02:51.433Z,100971.03
2022-10-17T15:03:49.211Z,100970.74
2022-10-17T15:04:49.335Z,100976.53
2022-10-17T15:05:50.666Z,100978.48
2022-10-17T15:06:54.986Z,100980.2
2022-10-17T15:07:53.751Z,100977.78
2022-10-17T15:08:53.151Z,100976.86
2022-10-17T15:09:54.184Z,100974.81
2022-10-17T15:10:53.878Z,100970.89
2022-10-17T15:11:55.525Z,100969.38
2022-10-17T15:12:59.380Z,100968.98
2022-10-17T15:13:57.375Z,100971.55
2022-10-17T15:14:57.793Z,100966.67
2022-10-17T15:15:58.319Z,100969.88
2022-10-17T15:16:58.722Z,100969.86
2022-10-17T15:17:59.352Z,100967.89
2022-10-17T15:18:59.466Z,100965.45
2022-10-17T15:19:59.873Z,100966.66
2022-10-17T15:21:05.294Z,100969.31
2022-10-17T15:22:04.303Z,100969.11
2022-10-17T15:23:04.909Z,100969.08
2022-10-17T15:24:05.531Z,100970.56
2022-10-17T15:25:06.667Z,100971.77
2022-10-17T15:27:15.505Z,100967.91
2022-10-17T15:28:13.544Z,100965.52
2022-10-17T15:29:15.607Z,100965.82
2022-10-17T15:31:17.558Z,100973.28
2022-10-17T15:32:15.928Z,100967.64
2022-10-17T15:33:15.831Z,100974.55
2022-10-17T15:34:16.154Z,100974.34
2022-10-17T15:35:17.275Z,100978.12
2022-10-17T15:37:24.869Z,100984.3
2022-10-17T15:38:22.419Z,100979.44
2022-10-17T15:39:22.740Z,100977.94
2022-10-17T15:40:26.324Z,100982.38
2022-10-17T15:41:26.028Z,100980.05
2022-10-17T15:42:28.799Z,100980.08
2022-10-17T15:43:26.242Z,100979.83
2022-10-17T15:44:29.325Z,100978.21
2022-10-17T15:45:27.076Z,100978.54
2022-10-17T15:46:34.047Z,100983.62
2022-10-17T15:47:33.326Z,100986.39
2022-10-17T15:48:32.113Z,100989.31
2022-10-17T15:49:32.422Z,100989.09
2022-10-17T15:50:32.748Z,100991.79
2022-10-17T15:51:33.874Z,100995.05
2022-10-17T15:52:33.571Z,100992.2
2022-10-17T15:53:34.085Z,100993.76
2022-10-17T15:54:34.304Z,100992.14
2022-10-17T15:55:36.148Z,100995.8
2022-10-17T15:56:41.526Z,100996.2
2022-10-17T15:57:41.592Z,101000.03
2022-10-17T15:58:40.474Z,100997.38
2022-10-17T15:59:39.891Z,100997.28
2022-10-17T16:00:40.740Z,100998.46
2022-10-17T16:01:41.719Z,100996.38
2022-10-17T16:02:41.223Z,100998.82
2022-10-17T16:03:41.423Z,100994.09
2022-10-17T16:04:42.057Z,100988.7
2022-10-17T16:05:42.269Z,100983.58
2022-10-17T16:06:43.306Z,100978.67
2022-10-17T16:07:44.319Z,100982.3
2022-10-17T16:08:43.613Z,100985.2
2022-10-17T16:09:43.924Z,100985.22
2022-10-17T16:10:44.539Z,100981.34
2022-10-17T16:11:45.471Z,100981.83
2022-10-17T16:12:45.792Z,100974.75
2022-10-17T16:13:54.156Z,100976.06
2022-10-17T16:14:46.508Z,100976.07